Time;durP1;ratioP1;P1;durP2;ratioP2;P2;SDS_P1;SDS_P2;PMS_P1;PMS_P2;Temp;Humidity;BMP_temperature;BMP_pressure;BME280_temperature;BME280_humidity;BME280_pressure;Samples;Min_cycle;Max_cycle;Signal;HPM_P1;HPM_P2
2023/06/19 00:01:29;;;;;;;11.03;9.80;;;18.60;99.90;;;;;;5197879;28;20286;-44
2023/06/19 00:04:00;;;;;;;10.47;9.27;;;18.60;99.90;;;;;;5177601;28;20184;-44
2023/06/19 00:06:31;;;;;;;11.80;9.30;;;18.60;99.90;;;;;;5206538;28;20543;-44
2023/06/19 00:09:01;;;;;;;10.10;9.00;;;18.60;99.90;;;;;;5203666;28;20667;-45
2023/06/19 00:11:32;;;;;;;9.83;8.83;;;18.50;99.90;;;;;;5187343;28;20199;-44
2023/06/19 00:14:03;;;;;;;12.10;9.70;;;18.50;99.90;;;;;;5203244;28;20180;-45
2023/06/19 00:16:34;;;;;;;10.80;9.70;;;18.50;99.90;;;;;;5189385;28;20449;-44
2023/06/19 00:19:05;;;;;;;11.67;9.57;;;18.50;99.90;;;;;;5193968;28;20180;-43
2023/06/19 00:21:37;;;;;;;11.67;10.43;;;18.50;99.90;;;;;;5207410;28;20262;-44
2023/06/19 00:24:08;;;;;;;10.80;9.70;;;18.60;99.90;;;;;;5209387;28;20167;-44
2023/06/19 00:26:40;;;;;;;9.67;8.77;;;18.60;99.90;;;;;;5208468;28;20964;-45
2023/06/19 00:29:10;;;;;;;10.47;9.50;;;18.60;99.90;;;;;;5192591;28;20723;-43
2023/06/19 00:31:41;;;;;;;11.90;8.80;;;18.60;99.90;;;;;;5191385;28;20513;-44
2023/06/19 00:34:11;;;;;;;10.40;9.00;;;18.60;99.90;;;;;;5200008;28;20179;-44
2023/06/19 00:36:43;;;;;;;11.17;9.20;;;18.60;99.90;;;;;;5203241;28;20203;-44
2023/06/19 00:39:13;;;;;;;9.80;8.90;;;18.60;99.90;;;;;;5203065;28;20227;-44
2023/06/19 00:41:47;;;;;;;11.17;9.30;;;18.70;99.90;;;;;;5191210;28;20478;-44
2023/06/19 00:44:18;;;;;;;9.50;8.67;;;18.70;99.90;;;;;;5188644;28;20294;-44
2023/06/19 00:46:58;;;;;;;10.00;9.00;;;18.80;99.90;;;;;;5205885;28;20461;-43
2023/06/19 00:49:30;;;;;;;10.40;9.37;;;18.80;99.90;;;;;;5191091;28;20464;-44
2023/06/19 00:52:02;;;;;;;11.97;10.70;;;18.80;99.90;;;;;;5186039;28;20509;-46
2023/06/19 00:54:33;;;;;;;11.43;10.00;;;18.80;99.90;;;;;;5183942;28;20427;-44
2023/06/19 00:57:04;;;;;;;11.97;10.73;;;18.80;99.90;;;;;;5186591;28;20475;-45
2023/06/19 00:59:35;;;;;;;10.00;8.63;;;18.80;99.90;;;;;;5201588;28;20429;-44
2023/06/19 01:02:06;;;;;;;12.17;10.60;;;18.80;99.90;;;;;;5198980;28;20418;-45
2023/06/19 01:04:37;;;;;;;14.60;8.57;;;18.70;99.90;;;;;;5190530;28;20464;-45
2023/06/19 01:07:11;;;;;;;10.60;9.60;;;18.80;99.90;;;;;;5198186;28;20276;-45
2023/06/19 01:09:52;;;;;;;13.60;9.70;;;18.80;99.90;;;;;;5196577;28;20258;-44
2023/06/19 01:12:30;;;;;;;13.90;9.80;;;18.80;99.90;;;;;;5187100;28;20935;-44
2023/06/19 01:15:05;;;;;;;10.77;9.73;;;18.80;99.90;;;;;;5201975;28;20489;-45
2023/06/19 01:17:36;;;;;;;11.00;9.80;;;18.80;99.90;;;;;;5184565;28;20446;-44
2023/06/19 01:20:10;;;;;;;9.97;9.10;;;18.80;99.90;;;;;;5208460;28;20456;-45
2023/06/19 01:22:43;;;;;;;11.47;10.00;;;18.70;99.90;;;;;;5204419;28;20442;-45
2023/06/19 01:25:15;;;;;;;12.50;10.27;;;18.70;99.90;;;;;;5197552;28;20517;-45
2023/06/19 01:27:47;;;;;;;10.73;9.77;;;18.70;99.90;;;;;;5201872;28;20473;-44
2023/06/19 01:30:17;;;;;;;15.87;10.70;;;18.60;99.90;;;;;;5205833;28;20492;-44
2023/06/19 01:33:00;;;;;;;10.77;9.30;;;18.60;99.90;;;;;;5188489;28;20418;-44
2023/06/19 01:35:34;;;;;;;11.87;10.50;;;18.60;99.90;;;;;;5191356;28;20258;-44
2023/06/19 01:38:07;;;;;;;11.33;10.10;;;18.50;99.90;;;;;;5207686;28;20458;-44
2023/06/19 01:40:39;;;;;;;10.30;9.30;;;18.50;99.90;;;;;;5204514;28;20507;-44
2023/06/19 01:43:10;;;;;;;11.13;9.97;;;18.50;99.90;;;;;;5190190;28;20489;-44
2023/06/19 01:45:42;;;;;;;11.73;9.70;;;18.50;99.90;;;;;;5187214;28;20459;-43
2023/06/19 01:48:14;;;;;;;10.47;9.43;;;18.40;99.90;;;;;;5204336;28;20455;-43
2023/06/19 01:50:48;;;;;;;11.53;10.40;;;18.40;99.90;;;;;;5201825;28;20545;-44
2023/06/19 01:53:19;;;;;;;11.43;10.23;;;18.50;99.90;;;;;;5192244;28;20823;-44
2023/06/19 01:55:50;;;;;;;11.27;10.17;;;18.50;99.90;;;;;;5190868;28;20430;-44
2023/06/19 01:58:20;;;;;;;22.13;10.00;;;18.50;99.90;;;;;;5206637;28;20203;-44
2023/06/19 02:00:51;;;;;;;18.50;10.10;;;18.50;99.90;;;;;;5179967;28;20191;-44
2023/06/19 02:03:22;;;;;;;15.10;10.53;;;18.50;99.90;;;;;;5203274;28;20207;-45
2023/06/19 02:05:52;;;;;;;12.07;9.90;;;18.60;99.90;;;;;;5204079;28;20652;-43
2023/06/19 02:08:23;;;;;;;13.10;10.70;;;18.60;99.90;;;;;;5200046;28;20290;-44
2023/06/19 02:10:54;;;;;;;12.97;10.77;;;18.60;99.90;;;;;;5178120;28;20260;-43
2023/06/19 02:13:24;;;;;;;10.43;9.33;;;18.60;99.90;;;;;;5206017;28;20187;-44
2023/06/19 02:15:55;;;;;;;12.13;9.57;;;18.60;99.90;;;;;;5203294;28;20318;-44
2023/06/19 02:18:26;;;;;;;11.27;9.87;;;18.60;99.90;;;;;;5180731;28;20204;-45
2023/06/19 02:20:57;;;;;;;11.10;10.03;;;18.60;99.90;;;;;;5185095;28;20188;-44
2023/06/19 02:23:28;;;;;;;15.17;10.97;;;18.60;99.90;;;;;;5202689;28;20199;-45
2023/06/19 02:25:59;;;;;;;10.17;9.07;;;18.60;99.90;;;;;;5204016;28;20187;-44
2023/06/19 02:28:30;;;;;;;12.10;10.90;;;18.60;99.90;;;;;;5189507;28;20466;-44
2023/06/19 02:31:00;;;;;;;10.70;9.63;;;18.60;99.90;;;;;;5187479;28;20207;-44
2023/06/19 02:33:32;;;;;;;11.17;9.90;;;18.60;99.90;;;;;;5202740;28;20255;-44
2023/06/19 02:36:04;;;;;;;14.40;11.37;;;18.60;99.90;;;;;;5205185;28;20245;-44
2023/06/19 02:38:35;;;;;;;11.73;10.60;;;18.50;99.90;;;;;;5194690;28;20517;-44
2023/06/19 02:41:06;;;;;;;11.43;10.27;;;18.50;99.90;;;;;;5180899;28;20876;-44
2023/06/19 02:43:37;;;;;;;11.40;10.40;;;18.50;99.90;;;;;;5188426;28;20537;-43
2023/06/19 02:46:07;;;;;;;15.60;11.40;;;18.60;99.90;;;;;;5207064;28;20241;-44
2023/06/19 02:48:38;;;;;;;11.67;10.57;;;18.60;99.90;;;;;;5203391;28;20269;-44
2023/06/19 02:51:09;;;;;;;11.30;10.00;;;18.60;99.90;;;;;;5169880;28;20677;-44
2023/06/19 02:53:41;;;;;;;11.00;9.90;;;18.60;99.90;;;;;;5201668;28;20494;-44
2023/06/19 02:56:12;;;;;;;11.60;10.13;;;18.60;99.90;;;;;;5205821;28;20195;-44
2023/06/19 02:58:43;;;;;;;14.00;10.80;;;18.60;99.90;;;;;;5197346;28;20533;-44
2023/06/19 03:01:14;;;;;;;11.30;9.97;;;18.60;99.90;;;;;;5195802;28;20523;-44
2023/06/19 03:03:46;;;;;;;11.67;10.43;;;18.60;99.90;;;;;;5205428;28;20274;-44
2023/06/19 03:06:17;;;;;;;12.10;10.97;;;18.60;99.90;;;;;;5204518;28;20194;-45
2023/06/19 03:08:48;;;;;;;11.93;10.70;;;18.60;99.90;;;;;;5195157;28;20910;-44
2023/06/19 03:11:19;;;;;;;14.70;12.47;;;18.50;99.90;;;;;;5190109;28;20473;-46
2023/06/19 03:13:50;;;;;;;11.63;10.53;;;18.50;99.90;;;;;;5207087;28;20663;-45
2023/06/19 03:16:21;;;;;;;12.87;11.37;;;18.60;99.90;;;;;;5194713;28;20189;-45
2023/06/19 03:18:52;;;;;;;13.57;11.40;;;18.60;99.90;;;;;;5188591;28;20847;-46
2023/06/19 03:21:23;;;;;;;15.03;11.80;;;18.50;99.90;;;;;;5205549;28;20211;-45
2023/06/19 03:23:54;;;;;;;12.67;11.13;;;18.60;99.90;;;;;;5186798;28;20188;-45
2023/06/19 03:26:25;;;;;;;13.50;11.30;;;18.60;99.90;;;;;;5204383;28;20407;-45
2023/06/19 03:28:55;;;;;;;11.27;10.23;;;18.60;99.90;;;;;;5201876;28;20233;-45
2023/06/19 03:31:26;;;;;;;12.47;11.17;;;18.60;99.90;;;;;;5202245;28;20765;-44
2023/06/19 03:33:56;;;;;;;12.80;11.40;;;18.70;99.90;;;;;;5197238;28;20251;-45
2023/06/19 03:36:27;;;;;;;12.90;11.70;;;18.70;99.90;;;;;;5200617;28;20208;-44
2023/06/19 03:38:58;;;;;;;14.10;10.80;;;18.80;99.90;;;;;;5198317;28;20238;-44
2023/06/19 03:41:28;;;;;;;11.97;10.77;;;18.90;99.90;;;;;;5204443;28;20192;-44
2023/06/19 03:43:59;;;;;;;13.77;10.67;;;19.00;99.90;;;;;;5203034;28;20187;-44
2023/06/19 03:46:30;;;;;;;10.27;9.27;;;19.00;99.90;;;;;;5173385;28;20184;-43
2023/06/19 03:49:02;;;;;;;17.33;10.00;;;19.10;99.90;;;;;;5199226;28;20263;-43
2023/06/19 03:51:33;;;;;;;11.60;10.40;;;19.20;99.90;;;;;;5196061;28;20207;-43
2023/06/19 03:54:04;;;;;;;12.77;10.33;;;19.20;99.90;;;;;;5182299;28;20441;-44
2023/06/19 03:56:34;;;;;;;12.30;10.53;;;19.30;99.90;;;;;;5193982;28;20183;-44
2023/06/19 03:59:05;;;;;;;13.83;10.97;;;19.30;99.90;;;;;;5204951;28;20176;-43
2023/06/19 04:01:35;;;;;;;12.90;10.77;;;19.30;99.90;;;;;;5193500;28;20183;-45
2023/06/19 04:04:06;;;;;;;13.03;11.63;;;19.30;99.90;;;;;;5184850;28;20188;-43
2023/06/19 04:06:37;;;;;;;14.90;11.70;;;19.30;99.90;;;;;;5188258;28;20722;-43
2023/06/19 04:09:08;;;;;;;12.70;10.60;;;19.20;99.90;;;;;;5188800;28;20199;-43
2023/06/19 04:11:39;;;;;;;17.20;11.97;;;19.20;99.90;;;;;;5202978;28;20580;-43
2023/06/19 04:14:10;;;;;;;13.50;11.60;;;19.10;99.90;;;;;;5208905;28;20495;-44
2023/06/19 04:16:41;;;;;;;12.97;10.90;;;19.10;99.90;;;;;;5184126;28;20615;-43
2023/06/19 04:19:11;;;;;;;12.13;10.93;;;19.10;99.90;;;;;;5191547;28;20640;-43
2023/06/19 04:21:42;;;;;;;12.03;10.80;;;19.10;99.90;;;;;;5172687;28;20541;-44
2023/06/19 04:24:13;;;;;;;13.57;10.90;;;19.10;99.90;;;;;;5203458;28;20179;-44
2023/06/19 04:26:43;;;;;;;13.47;11.87;;;19.10;99.90;;;;;;5193845;28;20691;-44
2023/06/19 04:29:16;;;;;;;13.20;10.70;;;19.10;99.90;;;;;;5192714;28;20270;-44
2023/06/19 04:31:47;;;;;;;11.90;10.70;;;19.10;99.90;;;;;;5204355;28;20176;-45
2023/06/19 04:34:21;;;;;;;15.30;11.73;;;19.10;99.90;;;;;;5192503;28;20492;-44
2023/06/19 04:36:52;;;;;;;15.17;11.20;;;19.10;99.90;;;;;;5203846;28;20254;-44
2023/06/19 04:39:23;;;;;;;10.83;9.80;;;19.10;99.90;;;;;;5207185;28;20431;-43
2023/06/19 04:41:53;;;;;;;10.70;9.80;;;19.20;99.90;;;;;;5197401;28;20922;-42
2023/06/19 04:44:24;;;;;;;11.37;9.10;;;19.30;99.90;;;;;;5203861;28;20187;-42
2023/06/19 04:47:00;;;;;;;11.20;10.10;;;19.30;99.90;;;;;;5202809;28;20247;-42
2023/06/19 04:49:31;;;;;;;14.57;10.67;;;19.40;99.90;;;;;;5193410;28;20172;-42
2023/06/19 04:52:03;;;;;;;18.60;11.07;;;19.40;99.90;;;;;;5209043;28;20456;-43
2023/06/19 04:54:33;;;;;;;13.33;10.97;;;19.50;99.90;;;;;;5186331;28;20660;-43
2023/06/19 04:57:05;;;;;;;14.70;11.07;;;19.50;99.90;;;;;;5191292;28;20486;-42
2023/06/19 04:59:35;;;;;;;11.90;10.70;;;19.50;99.90;;;;;;5203233;28;20187;-43
2023/06/19 05:02:07;;;;;;;15.70;10.50;;;19.50;99.90;;;;;;5169904;28;20442;-43
2023/06/19 05:04:38;;;;;;;11.37;10.27;;;19.60;99.90;;;;;;5203045;28;20628;-43
2023/06/19 05:07:10;;;;;;;11.57;10.47;;;19.60;99.90;;;;;;5208399;28;20450;-43
2023/06/19 05:09:41;;;;;;;15.73;12.70;;;19.60;99.90;;;;;;5200137;28;20192;-44
2023/06/19 05:12:12;;;;;;;13.30;10.20;;;19.60;99.90;;;;;;5181130;28;20422;-43
2023/06/19 05:14:42;;;;;;;13.90;12.07;;;19.50;99.90;;;;;;5186886;28;20182;-43
2023/06/19 05:17:14;;;;;;;12.13;10.93;;;19.50;99.90;;;;;;5184248;28;20199;-42
2023/06/19 05:19:44;;;;;;;13.20;11.80;;;19.50;99.90;;;;;;5189835;28;20207;-43
2023/06/19 05:22:18;;;;;;;16.90;11.70;;;19.50;99.90;;;;;;5201373;28;20439;-43
2023/06/19 05:24:48;;;;;;;16.40;11.30;;;19.50;99.90;;;;;;5187150;28;20242;-42
2023/06/19 05:27:19;;;;;;;17.93;12.00;;;19.50;99.90;;;;;;5190907;28;20458;-43
2023/06/19 05:29:50;;;;;;;12.83;11.47;;;19.50;99.90;;;;;;5193737;28;20218;-43
2023/06/19 05:32:21;;;;;;;16.53;11.17;;;19.50;99.90;;;;;;5183293;28;20184;-42
2023/06/19 05:34:51;;;;;;;15.47;12.23;;;19.60;99.90;;;;;;5201887;28;20434;-42
2023/06/19 05:37:22;;;;;;;13.67;11.23;;;19.60;99.90;;;;;;5201266;28;20196;-42
2023/06/19 05:39:53;;;;;;;12.53;11.33;;;19.60;99.90;;;;;;5186231;28;20188;-42
2023/06/19 05:42:24;;;;;;;17.73;11.17;;;19.70;99.90;;;;;;5183795;28;20188;-43
2023/06/19 05:44:54;;;;;;;13.30;11.60;;;19.70;99.90;;;;;;5174918;28;20203;-43
2023/06/19 05:47:25;;;;;;;11.87;10.67;;;19.70;99.90;;;;;;5184655;28;20218;-43
2023/06/19 05:49:59;;;;;;;14.57;12.10;;;19.70;99.90;;;;;;5203187;28;20207;-42
2023/06/19 05:52:30;;;;;;;12.63;11.40;;;19.70;99.90;;;;;;5196388;28;20450;-42
2023/06/19 05:55:01;;;;;;;14.53;10.87;;;19.70;99.90;;;;;;5199960;28;20839;-44
2023/06/19 05:57:33;;;;;;;13.63;12.27;;;19.80;99.90;;;;;;5178912;28;20209;-43
2023/06/19 06:00:05;;;;;;;13.63;12.17;;;19.80;99.90;;;;;;5199029;28;20710;-42
2023/06/19 06:02:36;;;;;;;14.00;11.27;;;19.80;99.90;;;;;;5180387;28;20464;-43
2023/06/19 06:05:11;;;;;;;12.80;11.60;;;19.90;99.90;;;;;;5187024;28;20438;-42
2023/06/19 06:07:41;;;;;;;14.30;12.60;;;20.00;99.90;;;;;;5179020;28;20293;-43
2023/06/19 06:10:13;;;;;;;14.20;11.63;;;19.90;99.90;;;;;;5187679;28;20531;-42
2023/06/19 06:12:44;;;;;;;16.13;12.70;;;19.90;99.90;;;;;;5188306;28;20218;-44
2023/06/19 06:15:16;;;;;;;17.37;13.07;;;19.90;99.90;;;;;;5202943;28;20736;-42
2023/06/19 06:17:46;;;;;;;13.83;12.43;;;19.90;99.90;;;;;;5191122;28;20252;-42
2023/06/19 06:20:17;;;;;;;16.60;11.57;;;19.90;99.90;;;;;;5206523;28;20442;-43
2023/06/19 06:22:48;;;;;;;15.27;12.07;;;19.80;99.90;;;;;;5194802;28;20179;-44
2023/06/19 06:25:19;;;;;;;14.43;12.40;;;19.80;99.90;;;;;;5195681;28;20256;-44
2023/06/19 06:27:50;;;;;;;15.37;12.67;;;19.90;99.90;;;;;;5174106;28;20699;-44
2023/06/19 06:30:21;;;;;;;16.20;12.70;;;19.90;99.90;;;;;;5174651;28;20467;-43
2023/06/19 06:32:52;;;;;;;13.63;12.20;;;20.00;99.90;;;;;;5192258;28;20184;-42
2023/06/19 06:35:23;;;;;;;13.60;11.80;;;20.10;99.90;;;;;;5175736;28;20323;-43
2023/06/19 06:37:53;;;;;;;13.50;12.23;;;20.20;99.90;;;;;;5207210;28;20214;-43
2023/06/19 06:40:25;;;;;;;14.87;13.03;;;20.20;99.90;;;;;;5196707;28;20216;-43
2023/06/19 06:42:56;;;;;;;15.50;12.60;;;20.30;99.90;;;;;;5188415;28;20187;-43
2023/06/19 06:45:27;;;;;;;16.87;12.70;;;20.40;99.90;;;;;;5209303;28;20417;-43
2023/06/19 06:47:59;;;;;;;13.13;11.70;;;20.40;99.90;;;;;;5183550;28;20258;-43
2023/06/19 06:50:32;;;;;;;14.77;12.90;;;20.50;99.90;;;;;;5194336;28;20244;-43
2023/06/19 06:53:02;;;;;;;13.30;11.90;;;20.50;99.90;;;;;;5197781;28;20450;-44
2023/06/19 06:55:33;;;;;;;13.97;11.43;;;20.60;99.90;;;;;;5215615;28;20446;-43
2023/06/19 06:58:05;;;;;;;15.10;12.57;;;20.80;99.90;;;;;;5196849;28;20220;-43
2023/06/19 07:00:35;;;;;;;18.27;11.70;;;20.90;99.90;;;;;;5205539;28;20287;-45
2023/06/19 07:03:07;;;;;;;13.90;11.40;;;21.10;99.90;;;;;;5191142;28;20517;-44
2023/06/19 07:05:38;;;;;;;17.53;12.80;;;21.20;99.90;;;;;;5198914;28;20211;-42
2023/06/19 07:08:08;;;;;;;16.37;11.30;;;21.20;99.90;;;;;;5184835;28;20508;-43
2023/06/19 07:10:39;;;;;;;15.57;12.83;;;21.40;99.90;;;;;;5207918;28;20211;-43
2023/06/19 07:13:10;;;;;;;14.00;12.20;;;21.50;99.90;;;;;;5196758;28;20250;-43
2023/06/19 07:15:41;;;;;;;17.60;14.13;;;21.50;99.90;;;;;;5174710;28;20422;-44
2023/06/19 07:18:12;;;;;;;13.27;11.90;;;21.60;99.90;;;;;;5198000;28;20439;-43
2023/06/19 07:20:43;;;;;;;13.90;11.30;;;21.70;99.90;;;;;;5176636;28;20291;-43
2023/06/19 07:23:14;;;;;;;17.70;11.50;;;21.70;99.90;;;;;;5184175;28;20192;-43
2023/06/19 07:25:47;;;;;;;19.47;11.80;;;21.70;99.90;;;;;;5203854;28;20203;-43
2023/06/19 07:28:17;;;;;;;16.27;12.10;;;21.70;99.90;;;;;;5213389;28;20568;-43
2023/06/19 07:30:48;;;;;;;15.70;11.00;;;21.60;99.90;;;;;;5200403;28;20754;-44
2023/06/19 07:33:19;;;;;;;18.33;12.13;;;21.70;99.90;;;;;;5190735;28;20274;-43
2023/06/19 07:35:49;;;;;;;14.97;12.77;;;21.80;99.90;;;;;;5192421;28;20183;-43
2023/06/19 07:38:20;;;;;;;19.33;11.83;;;21.90;99.90;;;;;;5202545;28;20676;-42
2023/06/19 07:40:51;;;;;;;13.47;11.80;;;22.00;99.90;;;;;;5208407;28;20291;-43
2023/06/19 07:43:22;;;;;;;14.60;12.10;;;22.10;99.90;;;;;;5170802;28;20633;-42
2023/06/19 07:45:56;;;;;;;14.10;11.87;;;22.40;99.90;;;;;;5188970;28;20477;-43
2023/06/19 07:48:27;;;;;;;12.43;10.60;;;22.60;99.90;;;;;;5195390;28;20439;-43
2023/06/19 07:50:57;;;;;;;21.23;11.50;;;22.70;99.90;;;;;;5186301;28;20465;-43
2023/06/19 07:53:28;;;;;;;23.40;11.00;;;22.80;99.90;;;;;;5198673;28;20191;-43
2023/06/19 07:55:59;;;;;;;14.20;11.50;;;23.00;99.90;;;;;;5206725;28;20181;-43
2023/06/19 07:58:30;;;;;;;11.50;10.30;;;23.10;99.90;;;;;;5205409;28;20728;-43
2023/06/19 08:01:01;;;;;;;15.47;10.23;;;23.00;99.90;;;;;;5200184;28;20546;-42
2023/06/19 08:03:31;;;;;;;11.83;10.60;;;22.90;99.90;;;;;;5200319;28;20450;-43
2023/06/19 08:06:02;;;;;;;20.40;12.00;;;22.90;99.90;;;;;;5204588;28;20669;-42
2023/06/19 08:08:33;;;;;;;12.57;10.80;;;22.90;99.90;;;;;;5187260;28;20286;-43
2023/06/19 08:11:04;;;;;;;11.70;10.40;;;22.90;99.90;;;;;;5184596;28;20689;-44
2023/06/19 08:13:34;;;;;;;13.73;11.50;;;22.90;99.90;;;;;;5183171;28;20243;-43
2023/06/19 08:16:05;;;;;;;15.07;11.90;;;22.90;99.90;;;;;;5188156;28;20184;-43
2023/06/19 08:18:36;;;;;;;15.47;11.30;;;23.00;99.90;;;;;;5186502;28;20570;-42
2023/06/19 08:21:07;;;;;;;11.83;10.70;;;23.10;99.90;;;;;;5200619;28;20442;-44
2023/06/19 08:23:39;;;;;;;13.40;11.50;;;23.00;99.90;;;;;;5189063;28;20180;-44
2023/06/19 08:26:10;;;;;;;16.87;12.23;;;22.90;99.90;;;;;;5195672;28;20180;-43
2023/06/19 08:28:41;;;;;;;16.90;11.00;;;22.90;99.90;;;;;;5207306;28;20845;-47
2023/06/19 08:31:12;;;;;;;13.53;10.90;;;23.00;99.90;;;;;;5202642;28;20467;-43
2023/06/19 08:33:43;;;;;;;12.63;10.50;;;23.10;99.90;;;;;;5185413;28;20437;-43
2023/06/19 08:36:14;;;;;;;11.87;10.67;;;23.20;99.90;;;;;;5198305;28;20215;-42
2023/06/19 08:38:47;;;;;;;13.13;11.23;;;23.30;99.90;;;;;;5189750;28;20704;-43
2023/06/19 08:41:21;;;;;;;13.00;10.17;;;23.20;99.90;;;;;;5185145;28;20507;-44
2023/06/19 08:43:52;;;;;;;11.70;10.50;;;23.10;99.90;;;;;;5199869;28;20426;-45
2023/06/19 08:46:23;;;;;;;15.50;12.27;;;23.10;99.90;;;;;;5189059;28;20772;-42
2023/06/19 08:48:55;;;;;;;13.40;11.00;;;23.20;99.90;;;;;;5208305;28;20188;-44
2023/06/19 08:51:28;;;;;;;15.90;10.67;;;23.40;99.90;;;;;;5207823;28;20269;-43
2023/06/19 08:54:05;;;;;;;17.27;11.10;;;23.50;99.90;;;;;;5191991;28;20468;-44
2023/06/19 08:56:37;;;;;;;11.53;10.33;;;23.60;99.90;;;;;;5216491;28;20437;-42
2023/06/19 08:59:12;;;;;;;18.87;11.77;;;23.70;99.90;;;;;;5198314;28;20436;-43
2023/06/19 09:01:51;;;;;;;11.30;10.20;;;23.90;99.90;;;;;;5191189;28;21009;-43
2023/06/19 09:04:28;;;;;;;12.40;10.80;;;23.90;99.90;;;;;;5191020;28;20451;-43
2023/06/19 09:07:02;;;;;;;12.00;9.97;;;23.80;99.90;;;;;;5177847;28;20442;-43
2023/06/19 09:09:33;;;;;;;10.87;9.73;;;23.70;99.90;;;;;;5203442;28;20414;-43
2023/06/19 09:12:06;;;;;;;12.13;11.00;;;23.60;99.90;;;;;;5199016;28;20959;-42
2023/06/19 09:14:46;;;;;;;12.93;11.63;;;23.60;99.90;;;;;;5204837;28;20544;-43
2023/06/19 09:17:20;;;;;;;16.27;11.10;;;23.60;99.90;;;;;;5199246;28;20465;-44
2023/06/19 09:19:53;;;;;;;13.43;10.67;;;23.50;99.90;;;;;;5211173;28;20452;-43
2023/06/19 09:22:25;;;;;;;11.47;10.13;;;23.40;99.90;;;;;;5191174;28;20483;-43
2023/06/19 09:25:01;;;;;;;13.53;9.90;;;23.40;99.90;;;;;;5189419;28;20887;-45
2023/06/19 09:27:33;;;;;;;11.83;10.60;;;23.50;99.90;;;;;;5213120;28;20537;-43
2023/06/19 09:30:05;;;;;;;12.73;10.67;;;23.60;99.90;;;;;;5194222;28;20564;-43
2023/06/19 09:32:36;;;;;;;14.00;10.30;;;23.60;99.90;;;;;;5183486;28;20438;-43
2023/06/19 09:35:07;;;;;;;11.43;10.33;;;23.70;99.90;;;;;;5206562;28;20434;-43
2023/06/19 09:37:42;;;;;;;17.27;10.33;;;24.00;99.80;;;;;;5195479;28;20798;-42
2023/06/19 09:40:13;;;;;;;18.40;11.37;;;24.10;99.80;;;;;;5199369;28;20453;-44
2023/06/19 09:42:45;;;;;;;11.77;9.97;;;24.10;99.40;;;;;;5195836;28;20426;-43
2023/06/19 09:45:19;;;;;;;12.97;10.27;;;24.10;98.80;;;;;;5202672;28;20194;-42
2023/06/19 09:47:53;;;;;;;15.40;10.60;;;24.10;98.50;;;;;;5201531;28;20458;-43
2023/06/19 09:50:27;;;;;;;14.27;10.13;;;24.10;98.20;;;;;;5194915;28;20458;-42
2023/06/19 09:52:58;;;;;;;14.07;10.53;;;24.20;98.10;;;;;;5196104;28;20435;-43
2023/06/19 09:55:30;;;;;;;14.83;11.10;;;24.30;97.80;;;;;;5207393;28;20431;-43
2023/06/19 09:58:03;;;;;;;16.37;10.90;;;24.60;97.40;;;;;;5207772;28;20434;-45
2023/06/19 10:00:34;;;;;;;12.90;10.20;;;24.80;96.90;;;;;;5209341;28;20834;-44
2023/06/19 10:03:12;;;;;;;13.10;9.83;;;25.10;96.50;;;;;;5199957;28;20491;-43
2023/06/19 10:05:43;;;;;;;17.90;11.00;;;25.40;95.80;;;;;;5188962;28;20452;-42
2023/06/19 10:08:14;;;;;;;11.33;10.13;;;25.70;95.00;;;;;;5196139;28;20453;-44
2023/06/19 10:10:48;;;;;;;15.53;10.30;;;26.00;93.50;;;;;;5207285;28;20462;-44
2023/06/19 10:13:19;;;;;;;14.10;10.73;;;26.20;92.60;;;;;;5189893;28;20183;-44
2023/06/19 10:15:49;;;;;;;15.07;11.20;;;26.00;91.70;;;;;;5201557;28;20419;-44
2023/06/19 10:18:20;;;;;;;13.47;10.33;;;25.90;91.80;;;;;;5201459;28;20643;-43
2023/06/19 10:20:51;;;;;;;14.17;9.77;;;25.80;91.60;;;;;;5189362;28;20220;-44
2023/06/19 10:23:24;;;;;;;10.93;9.93;;;25.60;92.20;;;;;;5193075;28;20184;-43
2023/06/19 10:25:57;;;;;;;16.20;10.77;;;25.50;92.70;;;;;;5194025;28;20667;-43
2023/06/19 10:28:31;;;;;;;18.80;11.10;;;25.60;92.20;;;;;;5209273;28;20895;-43
2023/06/19 10:31:06;;;;;;;14.87;10.47;;;26.00;91.30;;;;;;5193147;28;20465;-43
2023/06/19 10:33:40;;;;;;;11.43;10.27;;;26.20;90.90;;;;;;5207706;28;20410;-43
2023/06/19 10:36:29;;;;;;;11.13;9.93;;;26.50;90.10;;;;;;5203443;28;20429;-44
2023/06/19 10:39:00;;;;;;;10.30;9.23;;;26.60;86.20;;;;;;5191893;28;20446;-42
2023/06/19 10:41:31;;;;;;;10.90;9.80;;;26.50;87.60;;;;;;5193619;28;20953;-44
2023/06/19 10:44:12;;;;;;;13.57;10.30;;;26.30;86.70;;;;;;5205718;28;20184;-43
2023/06/19 10:46:43;;;;;;;13.03;9.50;;;26.00;87.50;;;;;;5182540;28;20470;-42
2023/06/19 10:49:13;;;;;;;12.37;11.10;;;25.80;88.60;;;;;;5211407;28;20414;-43
2023/06/19 10:51:44;;;;;;;11.03;9.70;;;25.60;90.10;;;;;;5207877;28;20199;-43
2023/06/19 10:54:15;;;;;;;18.33;10.57;;;25.50;90.60;;;;;;5186477;28;20188;-42
2023/06/19 10:56:48;;;;;;;10.70;9.60;;;25.40;90.70;;;;;;5199502;28;20561;-43
2023/06/19 10:59:19;;;;;;;23.90;9.10;;;25.40;90.50;;;;;;5195417;28;20183;-42
2023/06/19 11:01:51;;;;;;;11.03;9.93;;;25.40;91.30;;;;;;5200776;28;20466;-43
2023/06/19 11:04:23;;;;;;;13.57;11.00;;;25.40;90.80;;;;;;5204372;28;20698;-43
2023/06/19 11:06:54;;;;;;;11.13;10.13;;;25.40;91.50;;;;;;5208241;28;20443;-44
2023/06/19 11:09:26;;;;;;;15.50;10.70;;;25.30;91.40;;;;;;5193974;28;20711;-43
2023/06/19 11:11:58;;;;;;;10.83;9.70;;;25.30;91.80;;;;;;5201620;28;20616;-43
2023/06/19 11:14:32;;;;;;;11.33;10.23;;;25.20;91.40;;;;;;5203281;28;20780;-42
2023/06/19 11:17:03;;;;;;;11.07;9.57;;;25.20;91.80;;;;;;5202869;28;20553;-44
2023/06/19 11:19:36;;;;;;;11.00;9.80;;;25.40;91.50;;;;;;5206840;28;20837;-45
2023/06/19 11:22:07;;;;;;;10.10;9.10;;;25.60;91.10;;;;;;5203329;28;20403;-45
2023/06/19 11:24:48;;;;;;;9.83;8.93;;;25.60;90.00;;;;;;5203565;28;20923;-45
2023/06/19 11:27:27;;;;;;;10.63;9.53;;;25.60;88.20;;;;;;5198671;28;20453;-44
2023/06/19 11:29:58;;;;;;;12.80;11.17;;;25.70;88.20;;;;;;5205549;28;20504;-43
2023/06/19 11:32:40;;;;;;;12.37;9.90;;;25.90;87.70;;;;;;5200069;28;20946;-45
2023/06/19 11:35:12;;;;;;;9.93;8.67;;;26.00;85.70;;;;;;5190480;28;20438;-44
2023/06/19 11:37:46;;;;;;;9.80;8.80;;;26.30;85.80;;;;;;5190142;28;20595;-46
2023/06/19 11:40:20;;;;;;;10.50;9.47;;;26.50;85.20;;;;;;5208196;28;20989;-45
2023/06/19 11:42:54;;;;;;;10.70;8.17;;;26.90;83.70;;;;;;5198123;28;20435;-44
2023/06/19 11:45:25;;;;;;;10.67;8.50;;;27.30;79.10;;;;;;5180020;28;20438;-45
2023/06/19 11:47:55;;;;;;;10.37;7.73;;;27.80;77.00;;;;;;5198532;28;20628;-45
2023/06/19 11:50:27;;;;;;;9.63;8.37;;;28.20;72.40;;;;;;5184037;28;20589;-44
2023/06/19 11:52:59;;;;;;;8.80;7.90;;;28.20;70.10;;;;;;5204155;28;20232;-45
2023/06/19 11:55:30;;;;;;;11.47;8.80;;;28.10;68.50;;;;;;5205038;28;20423;-45
2023/06/19 11:58:01;;;;;;;9.50;8.60;;;27.80;69.70;;;;;;5205490;28;20437;-45
2023/06/19 12:00:32;;;;;;;13.83;8.10;;;27.80;69.30;;;;;;5202935;28;20183;-45
2023/06/19 12:03:04;;;;;;;12.87;8.60;;;27.80;67.50;;;;;;5190719;28;20187;-45
2023/06/19 12:05:35;;;;;;;9.83;8.30;;;27.60;67.90;;;;;;5186370;28;20211;-45
2023/06/19 12:08:06;;;;;;;9.73;8.20;;;27.60;67.10;;;;;;5201689;28;20975;-44
2023/06/19 12:10:37;;;;;;;8.77;7.93;;;27.50;67.20;;;;;;5177763;28;21002;-45
2023/06/19 12:13:08;;;;;;;8.07;7.37;;;27.40;67.20;;;;;;5208566;28;20418;-45
2023/06/19 12:15:39;;;;;;;11.50;9.20;;;27.20;67.60;;;;;;5186355;28;20194;-46
2023/06/19 12:18:12;;;;;;;9.60;8.60;;;27.20;67.60;;;;;;5203712;28;20556;-44
2023/06/19 12:20:43;;;;;;;9.83;8.93;;;27.10;68.70;;;;;;5191091;28;20275;-46
2023/06/19 12:23:14;;;;;;;8.90;7.90;;;27.30;68.50;;;;;;5203091;28;20552;-45
2023/06/19 12:25:45;;;;;;;11.77;7.97;;;27.50;66.90;;;;;;5204991;28;20192;-45
2023/06/19 12:28:18;;;;;;;8.50;7.70;;;27.70;65.50;;;;;;5206917;28;20453;-45
2023/06/19 12:30:51;;;;;;;10.43;8.00;;;28.20;63.30;;;;;;5207773;28;20294;-44
2023/06/19 12:33:22;;;;;;;8.97;7.63;;;28.80;61.50;;;;;;5206118;28;20441;-49
2023/06/19 12:35:53;;;;;;;9.70;7.53;;;29.30;60.20;;;;;;5205145;28;20438;-50
2023/06/19 12:38:27;;;;;;;10.13;8.10;;;29.10;57.40;;;;;;5194030;28;20503;-51
2023/06/19 12:40:58;;;;;;;8.60;7.80;;;28.90;58.60;;;;;;5206947;28;20334;-49
2023/06/19 12:43:35;;;;;;;7.87;7.17;;;28.80;57.50;;;;;;5204570;28;20418;-50
2023/06/19 12:46:19;;;;;;;8.80;7.83;;;28.60;56.90;;;;;;5179969;28;20790;-50
2023/06/19 12:48:55;;;;;;;7.23;6.63;;;28.30;57.40;;;;;;5207782;28;20430;-50
2023/06/19 12:51:27;;;;;;;21.77;7.90;;;28.00;57.80;;;;;;5189702;28;20469;-50
2023/06/19 12:53:58;;;;;;;8.10;7.30;;;27.90;56.70;;;;;;5202198;28;20473;-50